sensor_id;sensor_type;location;lat;lon;timestamp;P1;durP1;ratioP1;P2;durP2;ratioP2
21426;SDS011;10874;49.452;11.050;2023-07-24T00:00:22;7.63;;;6.00;;
21426;SDS011;10874;49.452;11.050;2023-07-24T00:02:49;8.27;;;6.27;;
21426;SDS011;10874;49.452;11.050;2023-07-24T00:05:16;7.07;;;6.10;;
21426;SDS011;10874;49.452;11.050;2023-07-24T00:07:43;8.77;;;6.27;;
21426;SDS011;10874;49.452;11.050;2023-07-24T00:10:10;9.13;;;6.80;;
21426;SDS011;10874;49.452;11.050;2023-07-24T00:12:37;9.30;;;6.13;;
21426;SDS011;10874;49.452;11.050;2023-07-24T00:15:04;8.70;;;6.67;;
21426;SDS011;10874;49.452;11.050;2023-07-24T00:17:30;7.70;;;5.67;;
21426;SDS011;10874;49.452;11.050;2023-07-24T00:19:57;7.00;;;6.03;;
21426;SDS011;10874;49.452;11.050;2023-07-24T00:22:24;7.37;;;5.63;;
21426;SDS011;10874;49.452;11.050;2023-07-24T00:24:51;8.77;;;6.17;;
21426;SDS011;10874;49.452;11.050;2023-07-24T00:27:17;10.53;;;6.80;;
21426;SDS011;10874;49.452;11.050;2023-07-24T00:29:44;8.90;;;6.13;;
21426;SDS011;10874;49.452;11.050;2023-07-24T00:32:11;7.20;;;5.77;;
21426;SDS011;10874;49.452;11.050;2023-07-24T00:34:38;7.57;;;6.00;;
21426;SDS011;10874;49.452;11.050;2023-07-24T00:37:05;7.87;;;6.23;;
21426;SDS011;10874;49.452;11.050;2023-07-24T00:39:31;7.70;;;6.10;;
21426;SDS011;10874;49.452;11.050;2023-07-24T00:41:58;5.93;;;5.27;;
21426;SDS011;10874;49.452;11.050;2023-07-24T00:44:25;7.00;;;5.40;;
21426;SDS011;10874;49.452;11.050;2023-07-24T00:46:53;9.50;;;6.23;;
21426;SDS011;10874;49.452;11.050;2023-07-24T00:49:20;8.50;;;5.90;;
21426;SDS011;10874;49.452;11.050;2023-07-24T00:51:47;6.67;;;5.47;;
21426;SDS011;10874;49.452;11.050;2023-07-24T00:54:14;7.47;;;5.97;;
21426;SDS011;10874;49.452;11.050;2023-07-24T00:56:44;7.83;;;5.83;;
21426;SDS011;10874;49.452;11.050;2023-07-24T00:59:11;7.77;;;5.80;;
21426;SDS011;10874;49.452;11.050;2023-07-24T01:01:38;10.03;;;6.03;;
21426;SDS011;10874;49.452;11.050;2023-07-24T01:04:06;7.27;;;5.53;;
21426;SDS011;10874;49.452;11.050;2023-07-24T01:06:33;7.83;;;6.00;;
21426;SDS011;10874;49.452;11.050;2023-07-24T01:09:02;7.60;;;6.30;;
21426;SDS011;10874;49.452;11.050;2023-07-24T01:11:41;7.57;;;6.20;;
21426;SDS011;10874;49.452;11.050;2023-07-24T01:16:40;9.10;;;6.63;;
21426;SDS011;10874;49.452;11.050;2023-07-24T01:19:12;8.30;;;6.47;;
21426;SDS011;10874;49.452;11.050;2023-07-24T01:21:44;7.70;;;6.17;;
21426;SDS011;10874;49.452;11.050;2023-07-24T01:26:47;10.67;;;6.87;;
21426;SDS011;10874;49.452;11.050;2023-07-24T01:29:13;8.83;;;6.90;;
21426;SDS011;10874;49.452;11.050;2023-07-24T01:31:41;9.20;;;7.20;;
21426;SDS011;10874;49.452;11.050;2023-07-24T01:34:07;9.07;;;6.87;;
21426;SDS011;10874;49.452;11.050;2023-07-24T01:36:34;9.63;;;6.47;;
21426;SDS011;10874;49.452;11.050;2023-07-24T01:39:01;9.73;;;7.20;;
21426;SDS011;10874;49.452;11.050;2023-07-24T01:41:28;9.17;;;6.23;;
21426;SDS011;10874;49.452;11.050;2023-07-24T01:43:55;9.40;;;6.83;;
21426;SDS011;10874;49.452;11.050;2023-07-24T01:46:21;8.37;;;6.63;;
21426;SDS011;10874;49.452;11.050;2023-07-24T01:48:48;7.50;;;6.17;;
21426;SDS011;10874;49.452;11.050;2023-07-24T01:51:15;7.47;;;6.03;;
21426;SDS011;10874;49.452;11.050;2023-07-24T01:53:42;8.93;;;6.83;;
21426;SDS011;10874;49.452;11.050;2023-07-24T01:56:09;8.00;;;6.47;;
21426;SDS011;10874;49.452;11.050;2023-07-24T01:58:35;8.90;;;7.17;;
21426;SDS011;10874;49.452;11.050;2023-07-24T02:01:02;8.67;;;6.53;;
21426;SDS011;10874;49.452;11.050;2023-07-24T02:03:29;7.83;;;6.30;;
21426;SDS011;10874;49.452;11.050;2023-07-24T02:05:56;8.97;;;6.87;;
21426;SDS011;10874;49.452;11.050;2023-07-24T02:08:23;10.53;;;7.23;;
21426;SDS011;10874;49.452;11.050;2023-07-24T02:10:49;8.77;;;6.57;;
21426;SDS011;10874;49.452;11.050;2023-07-24T02:13:17;7.73;;;6.60;;
21426;SDS011;10874;49.452;11.050;2023-07-24T02:15:48;8.10;;;6.40;;
21426;SDS011;10874;49.452;11.050;2023-07-24T02:18:15;8.63;;;6.90;;
21426;SDS011;10874;49.452;11.050;2023-07-24T02:20:47;8.30;;;6.97;;
21426;SDS011;10874;49.452;11.050;2023-07-24T02:23:14;8.63;;;7.03;;
21426;SDS011;10874;49.452;11.050;2023-07-24T02:25:41;9.93;;;6.97;;
21426;SDS011;10874;49.452;11.050;2023-07-24T02:28:09;10.23;;;7.10;;
21426;SDS011;10874;49.452;11.050;2023-07-24T02:30:39;9.90;;;7.57;;
21426;SDS011;10874;49.452;11.050;2023-07-24T02:33:06;10.53;;;7.60;;
21426;SDS011;10874;49.452;11.050;2023-07-24T02:35:40;9.47;;;7.30;;
21426;SDS011;10874;49.452;11.050;2023-07-24T02:38:07;9.97;;;6.73;;
21426;SDS011;10874;49.452;11.050;2023-07-24T02:40:35;8.80;;;6.77;;
21426;SDS011;10874;49.452;11.050;2023-07-24T02:43:02;9.70;;;7.30;;
21426;SDS011;10874;49.452;11.050;2023-07-24T02:45:28;9.13;;;7.50;;
21426;SDS011;10874;49.452;11.050;2023-07-24T02:47:56;10.47;;;7.33;;
21426;SDS011;10874;49.452;11.050;2023-07-24T02:50:23;9.57;;;7.67;;
21426;SDS011;10874;49.452;11.050;2023-07-24T02:52:49;11.77;;;7.60;;
21426;SDS011;10874;49.452;11.050;2023-07-24T02:55:16;9.87;;;7.73;;
21426;SDS011;10874;49.452;11.050;2023-07-24T02:57:43;8.93;;;7.00;;
21426;SDS011;10874;49.452;11.050;2023-07-24T03:00:10;11.40;;;8.23;;
21426;SDS011;10874;49.452;11.050;2023-07-24T03:02:37;9.13;;;7.47;;
21426;SDS011;10874;49.452;11.050;2023-07-24T03:05:04;10.73;;;7.97;;
21426;SDS011;10874;49.452;11.050;2023-07-24T03:07:33;8.47;;;6.80;;
21426;SDS011;10874;49.452;11.050;2023-07-24T03:10:00;10.03;;;7.70;;
21426;SDS011;10874;49.452;11.050;2023-07-24T03:12:27;9.63;;;7.43;;
21426;SDS011;10874;49.452;11.050;2023-07-24T03:14:53;8.47;;;7.13;;
21426;SDS011;10874;49.452;11.050;2023-07-24T03:17:20;8.53;;;7.03;;
21426;SDS011;10874;49.452;11.050;2023-07-24T03:19:48;12.37;;;7.97;;
21426;SDS011;10874;49.452;11.050;2023-07-24T03:22:15;10.57;;;7.43;;
21426;SDS011;10874;49.452;11.050;2023-07-24T03:24:42;8.00;;;6.57;;
21426;SDS011;10874;49.452;11.050;2023-07-24T03:27:09;12.33;;;8.17;;
21426;SDS011;10874;49.452;11.050;2023-07-24T03:29:35;11.03;;;8.20;;
21426;SDS011;10874;49.452;11.050;2023-07-24T03:32:03;11.03;;;8.27;;
21426;SDS011;10874;49.452;11.050;2023-07-24T03:34:30;11.97;;;8.30;;
21426;SDS011;10874;49.452;11.050;2023-07-24T03:36:57;11.63;;;8.40;;
21426;SDS011;10874;49.452;11.050;2023-07-24T03:39:24;11.40;;;8.13;;
21426;SDS011;10874;49.452;11.050;2023-07-24T03:41:51;9.77;;;7.80;;
21426;SDS011;10874;49.452;11.050;2023-07-24T03:44:17;10.07;;;8.07;;
21426;SDS011;10874;49.452;11.050;2023-07-24T03:46:45;10.63;;;8.10;;
21426;SDS011;10874;49.452;11.050;2023-07-24T03:49:11;10.87;;;8.50;;
21426;SDS011;10874;49.452;11.050;2023-07-24T03:51:38;9.57;;;7.97;;
21426;SDS011;10874;49.452;11.050;2023-07-24T03:54:05;11.03;;;8.37;;
21426;SDS011;10874;49.452;11.050;2023-07-24T03:56:32;9.90;;;7.50;;
21426;SDS011;10874;49.452;11.050;2023-07-24T03:58:58;10.00;;;7.50;;
21426;SDS011;10874;49.452;11.050;2023-07-24T04:01:25;9.73;;;7.43;;
21426;SDS011;10874;49.452;11.050;2023-07-24T04:03:52;12.23;;;8.03;;
21426;SDS011;10874;49.452;11.050;2023-07-24T04:06:19;10.23;;;7.60;;
21426;SDS011;10874;49.452;11.050;2023-07-24T04:08:46;8.93;;;7.37;;
21426;SDS011;10874;49.452;11.050;2023-07-24T04:11:13;8.90;;;7.40;;
21426;SDS011;10874;49.452;11.050;2023-07-24T04:13:39;9.73;;;7.33;;
21426;SDS011;10874;49.452;11.050;2023-07-24T04:16:06;8.93;;;7.17;;
21426;SDS011;10874;49.452;11.050;2023-07-24T04:18:33;11.23;;;7.20;;
21426;SDS011;10874;49.452;11.050;2023-07-24T04:21:00;10.00;;;7.97;;
21426;SDS011;10874;49.452;11.050;2023-07-24T04:23:26;10.57;;;8.47;;
21426;SDS011;10874;49.452;11.050;2023-07-24T04:25:53;12.03;;;7.87;;
21426;SDS011;10874;49.452;11.050;2023-07-24T04:28:20;10.30;;;8.00;;
21426;SDS011;10874;49.452;11.050;2023-07-24T04:30:47;11.03;;;7.80;;
21426;SDS011;10874;49.452;11.050;2023-07-24T04:33:14;12.20;;;7.70;;
21426;SDS011;10874;49.452;11.050;2023-07-24T04:35:41;10.07;;;7.70;;
21426;SDS011;10874;49.452;11.050;2023-07-24T04:38:07;11.83;;;8.13;;
21426;SDS011;10874;49.452;11.050;2023-07-24T04:40:34;10.30;;;7.63;;
21426;SDS011;10874;49.452;11.050;2023-07-24T04:43:01;8.47;;;6.80;;
21426;SDS011;10874;49.452;11.050;2023-07-24T04:45:28;9.93;;;7.67;;
21426;SDS011;10874;49.452;11.050;2023-07-24T04:47:55;8.73;;;7.37;;
21426;SDS011;10874;49.452;11.050;2023-07-24T04:50:22;8.73;;;7.43;;
21426;SDS011;10874;49.452;11.050;2023-07-24T04:52:48;10.50;;;6.60;;
21426;SDS011;10874;49.452;11.050;2023-07-24T04:55:15;9.67;;;7.23;;
21426;SDS011;10874;49.452;11.050;2023-07-24T04:57:42;9.07;;;7.30;;
21426;SDS011;10874;49.452;11.050;2023-07-24T05:00:09;9.80;;;8.27;;
21426;SDS011;10874;49.452;11.050;2023-07-24T05:02:36;9.27;;;7.77;;
21426;SDS011;10874;49.452;11.050;2023-07-24T05:05:03;10.90;;;8.63;;
21426;SDS011;10874;49.452;11.050;2023-07-24T05:07:30;11.13;;;7.37;;
21426;SDS011;10874;49.452;11.050;2023-07-24T05:09:56;10.10;;;7.70;;
21426;SDS011;10874;49.452;11.050;2023-07-24T05:12:23;10.30;;;8.00;;
21426;SDS011;10874;49.452;11.050;2023-07-24T05:14:50;9.77;;;7.43;;
21426;SDS011;10874;49.452;11.050;2023-07-24T05:17:17;9.43;;;7.10;;
21426;SDS011;10874;49.452;11.050;2023-07-24T05:19:44;10.30;;;8.30;;
21426;SDS011;10874;49.452;11.050;2023-07-24T05:22:10;10.67;;;8.30;;
21426;SDS011;10874;49.452;11.050;2023-07-24T05:24:37;10.57;;;8.37;;
21426;SDS011;10874;49.452;11.050;2023-07-24T05:27:07;10.77;;;7.83;;
21426;SDS011;10874;49.452;11.050;2023-07-24T05:29:34;12.23;;;8.20;;
21426;SDS011;10874;49.452;11.050;2023-07-24T05:32:01;11.47;;;7.93;;
21426;SDS011;10874;49.452;11.050;2023-07-24T05:34:27;10.17;;;7.80;;
21426;SDS011;10874;49.452;11.050;2023-07-24T05:36:54;9.80;;;7.67;;
21426;SDS011;10874;49.452;11.050;2023-07-24T05:39:21;10.47;;;7.93;;
21426;SDS011;10874;49.452;11.050;2023-07-24T05:41:48;12.50;;;7.07;;
21426;SDS011;10874;49.452;11.050;2023-07-24T05:44:15;10.00;;;7.03;;
21426;SDS011;10874;49.452;11.050;2023-07-24T05:46:42;9.70;;;7.33;;
21426;SDS011;10874;49.452;11.050;2023-07-24T05:49:08;15.10;;;7.97;;
21426;SDS011;10874;49.452;11.050;2023-07-24T05:51:35;10.00;;;8.07;;
21426;SDS011;10874;49.452;11.050;2023-07-24T05:54:02;9.07;;;7.47;;
21426;SDS011;10874;49.452;11.050;2023-07-24T05:56:29;11.47;;;7.57;;
21426;SDS011;10874;49.452;11.050;2023-07-24T05:58:56;8.90;;;7.03;;
21426;SDS011;10874;49.452;11.050;2023-07-24T06:01:22;10.07;;;7.30;;
21426;SDS011;10874;49.452;11.050;2023-07-24T06:03:49;8.60;;;7.17;;
21426;SDS011;10874;49.452;11.050;2023-07-24T06:06:18;9.90;;;8.20;;
21426;SDS011;10874;49.452;11.050;2023-07-24T06:08:45;10.07;;;7.07;;
21426;SDS011;10874;49.452;11.050;2023-07-24T06:11:14;9.67;;;7.27;;
21426;SDS011;10874;49.452;11.050;2023-07-24T06:13:40;12.87;;;9.53;;
21426;SDS011;10874;49.452;11.050;2023-07-24T06:16:07;11.00;;;7.47;;
21426;SDS011;10874;49.452;11.050;2023-07-24T06:18:34;10.63;;;8.30;;
21426;SDS011;10874;49.452;11.050;2023-07-24T06:21:01;12.97;;;7.90;;
21426;SDS011;10874;49.452;11.050;2023-07-24T06:23:28;12.83;;;8.00;;
21426;SDS011;10874;49.452;11.050;2023-07-24T06:25:55;9.87;;;7.70;;
21426;SDS011;10874;49.452;11.050;2023-07-24T06:28:22;10.47;;;7.87;;
21426;SDS011;10874;49.452;11.050;2023-07-24T06:30:51;10.00;;;7.90;;
21426;SDS011;10874;49.452;11.050;2023-07-24T06:33:18;11.17;;;7.67;;
21426;SDS011;10874;49.452;11.050;2023-07-24T06:35:45;12.50;;;8.60;;
21426;SDS011;10874;49.452;11.050;2023-07-24T06:38:11;11.53;;;8.00;;
21426;SDS011;10874;49.452;11.050;2023-07-24T06:40:38;9.07;;;7.67;;
21426;SDS011;10874;49.452;11.050;2023-07-24T06:43:05;8.47;;;7.23;;
21426;SDS011;10874;49.452;11.050;2023-07-24T06:45:32;9.63;;;7.63;;
21426;SDS011;10874;49.452;11.050;2023-07-24T06:47:58;10.97;;;7.80;;
21426;SDS011;10874;49.452;11.050;2023-07-24T06:50:25;10.27;;;7.67;;
21426;SDS011;10874;49.452;11.050;2023-07-24T06:52:52;9.40;;;7.23;;
21426;SDS011;10874;49.452;11.050;2023-07-24T06:55:20;11.00;;;7.87;;
21426;SDS011;10874;49.452;11.050;2023-07-24T06:57:47;13.73;;;9.10;;
21426;SDS011;10874;49.452;11.050;2023-07-24T07:00:14;10.43;;;7.63;;
21426;SDS011;10874;49.452;11.050;2023-07-24T07:02:41;10.70;;;7.90;;
21426;SDS011;10874;49.452;11.050;2023-07-24T07:05:07;10.43;;;7.53;;
21426;SDS011;10874;49.452;11.050;2023-07-24T07:07:34;9.27;;;7.53;;
21426;SDS011;10874;49.452;11.050;2023-07-24T07:10:01;10.00;;;7.57;;
21426;SDS011;10874;49.452;11.050;2023-07-24T07:12:28;9.47;;;7.50;;
21426;SDS011;10874;49.452;11.050;2023-07-24T07:14:55;9.93;;;7.70;;
21426;SDS011;10874;49.452;11.050;2023-07-24T07:17:22;9.60;;;7.83;;
21426;SDS011;10874;49.452;11.050;2023-07-24T07:19:49;13.70;;;8.87;;
21426;SDS011;10874;49.452;11.050;2023-07-24T07:22:15;14.03;;;9.27;;
21426;SDS011;10874;49.452;11.050;2023-07-24T07:24:42;14.67;;;9.90;;
21426;SDS011;10874;49.452;11.050;2023-07-24T07:27:10;11.50;;;8.57;;
21426;SDS011;10874;49.452;11.050;2023-07-24T07:29:37;9.57;;;7.77;;
21426;SDS011;10874;49.452;11.050;2023-07-24T07:32:04;10.10;;;7.50;;
21426;SDS011;10874;49.452;11.050;2023-07-24T07:34:30;10.50;;;8.07;;
21426;SDS011;10874;49.452;11.050;2023-07-24T07:36:57;10.77;;;8.00;;
21426;SDS011;10874;49.452;11.050;2023-07-24T07:39:24;9.87;;;7.50;;
21426;SDS011;10874;49.452;11.050;2023-07-24T07:41:52;14.17;;;8.63;;
21426;SDS011;10874;49.452;11.050;2023-07-24T07:44:37;12.53;;;8.63;;
21426;SDS011;10874;49.452;11.050;2023-07-24T07:47:04;10.03;;;8.17;;
21426;SDS011;10874;49.452;11.050;2023-07-24T07:49:31;11.90;;;8.30;;
21426;SDS011;10874;49.452;11.050;2023-07-24T07:51:57;11.10;;;7.70;;
21426;SDS011;10874;49.452;11.050;2023-07-24T07:54:24;14.93;;;8.90;;
21426;SDS011;10874;49.452;11.050;2023-07-24T07:56:51;9.60;;;7.80;;
21426;SDS011;10874;49.452;11.050;2023-07-24T07:59:19;11.37;;;8.27;;
21426;SDS011;10874;49.452;11.050;2023-07-24T08:01:46;9.87;;;8.57;;
21426;SDS011;10874;49.452;11.050;2023-07-24T08:04:13;10.13;;;8.30;;
21426;SDS011;10874;49.452;11.050;2023-07-24T08:06:39;12.50;;;7.87;;
21426;SDS011;10874;49.452;11.050;2023-07-24T08:09:06;14.37;;;7.40;;
21426;SDS011;10874;49.452;11.050;2023-07-24T08:11:33;9.23;;;8.03;;
21426;SDS011;10874;49.452;11.050;2023-07-24T08:14:00;12.13;;;8.23;;
21426;SDS011;10874;49.452;11.050;2023-07-24T08:16:26;10.37;;;8.07;;
21426;SDS011;10874;49.452;11.050;2023-07-24T08:18:54;11.40;;;8.33;;
21426;SDS011;10874;49.452;11.050;2023-07-24T08:21:24;11.47;;;9.10;;
21426;SDS011;10874;49.452;11.050;2023-07-24T08:23:50;12.77;;;7.93;;
21426;SDS011;10874;49.452;11.050;2023-07-24T08:26:17;14.33;;;9.27;;
21426;SDS011;10874;49.452;11.050;2023-07-24T08:28:44;10.33;;;7.43;;
21426;SDS011;10874;49.452;11.050;2023-07-24T08:31:11;10.50;;;7.63;;
21426;SDS011;10874;49.452;11.050;2023-07-24T08:33:38;11.37;;;8.13;;
21426;SDS011;10874;49.452;11.050;2023-07-24T08:36:05;12.87;;;8.53;;
21426;SDS011;10874;49.452;11.050;2023-07-24T08:38:33;12.37;;;8.63;;
21426;SDS011;10874;49.452;11.050;2023-07-24T08:41:07;11.83;;;8.60;;
21426;SDS011;10874;49.452;11.050;2023-07-24T08:43:36;11.40;;;8.13;;
21426;SDS011;10874;49.452;11.050;2023-07-24T08:46:03;11.00;;;8.57;;
21426;SDS011;10874;49.452;11.050;2023-07-24T08:48:31;10.33;;;8.40;;
21426;SDS011;10874;49.452;11.050;2023-07-24T08:50:59;15.10;;;9.47;;
21426;SDS011;10874;49.452;11.050;2023-07-24T08:53:27;12.43;;;8.67;;
21426;SDS011;10874;49.452;11.050;2023-07-24T08:55:55;11.43;;;8.07;;
21426;SDS011;10874;49.452;11.050;2023-07-24T08:58:22;12.07;;;8.53;;
21426;SDS011;10874;49.452;11.050;2023-07-24T09:00:49;9.17;;;7.80;;
21426;SDS011;10874;49.452;11.050;2023-07-24T09:03:18;10.90;;;7.80;;
21426;SDS011;10874;49.452;11.050;2023-07-24T09:05:45;11.23;;;7.73;;
21426;SDS011;10874;49.452;11.050;2023-07-24T09:08:12;11.47;;;8.90;;
21426;SDS011;10874;49.452;11.050;2023-07-24T09:10:39;11.47;;;8.60;;
21426;SDS011;10874;49.452;11.050;2023-07-24T09:13:07;11.23;;;8.67;;
21426;SDS011;10874;49.452;11.050;2023-07-24T09:15:40;11.00;;;8.77;;
21426;SDS011;10874;49.452;11.050;2023-07-24T09:18:07;12.77;;;8.40;;
21426;SDS011;10874;49.452;11.050;2023-07-24T09:20:41;11.43;;;8.63;;
21426;SDS011;10874;49.452;11.050;2023-07-24T09:23:09;11.57;;;8.80;;
21426;SDS011;10874;49.452;11.050;2023-07-24T09:25:43;11.47;;;8.97;;
21426;SDS011;10874;49.452;11.050;2023-07-24T09:28:11;10.57;;;8.70;;
21426;SDS011;10874;49.452;11.050;2023-07-24T09:30:38;11.40;;;8.33;;
21426;SDS011;10874;49.452;11.050;2023-07-24T09:33:06;12.33;;;9.30;;
21426;SDS011;10874;49.452;11.050;2023-07-24T09:35:33;12.17;;;9.53;;
21426;SDS011;10874;49.452;11.050;2023-07-24T09:38:01;11.80;;;8.80;;
21426;SDS011;10874;49.452;11.050;2023-07-24T09:40:36;10.63;;;7.97;;
21426;SDS011;10874;49.452;11.050;2023-07-24T09:43:09;10.83;;;9.23;;
21426;SDS011;10874;49.452;11.050;2023-07-24T09:45:59;11.77;;;8.77;;
21426;SDS011;10874;49.452;11.050;2023-07-24T09:48:26;10.40;;;8.50;;
21426;SDS011;10874;49.452;11.050;2023-07-24T09:50:57;11.90;;;8.67;;
21426;SDS011;10874;49.452;11.050;2023-07-24T09:56:04;11.70;;;8.13;;
21426;SDS011;10874;49.452;11.050;2023-07-24T09:58:38;9.00;;;7.67;;
21426;SDS011;10874;49.452;11.050;2023-07-24T10:01:06;11.33;;;9.17;;
21426;SDS011;10874;49.452;11.050;2023-07-24T10:03:34;11.00;;;8.30;;
21426;SDS011;10874;49.452;11.050;2023-07-24T10:06:01;11.97;;;8.50;;
21426;SDS011;10874;49.452;11.050;2023-07-24T10:08:28;11.27;;;8.50;;
21426;SDS011;10874;49.452;11.050;2023-07-24T10:10:55;9.63;;;8.00;;
21426;SDS011;10874;49.452;11.050;2023-07-24T10:13:22;9.10;;;7.93;;
21426;SDS011;10874;49.452;11.050;2023-07-24T10:15:49;11.37;;;8.37;;
21426;SDS011;10874;49.452;11.050;2023-07-24T10:18:16;10.63;;;8.20;;
21426;SDS011;10874;49.452;11.050;2023-07-24T10:20:46;9.47;;;8.30;;
21426;SDS011;10874;49.452;11.050;2023-07-24T10:23:16;10.83;;;8.47;;
21426;SDS011;10874;49.452;11.050;2023-07-24T10:25:44;11.90;;;9.13;;
21426;SDS011;10874;49.452;11.050;2023-07-24T10:28:11;10.67;;;9.17;;
21426;SDS011;10874;49.452;11.050;2023-07-24T10:30:38;12.33;;;9.87;;
21426;SDS011;10874;49.452;11.050;2023-07-24T10:33:18;12.40;;;9.20;;
21426;SDS011;10874;49.452;11.050;2023-07-24T10:35:47;12.47;;;8.27;;
21426;SDS011;10874;49.452;11.050;2023-07-24T10:38:14;8.93;;;8.03;;
21426;SDS011;10874;49.452;11.050;2023-07-24T10:40:42;12.00;;;8.17;;
21426;SDS011;10874;49.452;11.050;2023-07-24T10:43:13;10.40;;;8.17;;
21426;SDS011;10874;49.452;11.050;2023-07-24T10:45:50;9.93;;;7.27;;
21426;SDS011;10874;49.452;11.050;2023-07-24T10:48:17;13.07;;;9.17;;
21426;SDS011;10874;49.452;11.050;2023-07-24T10:50:45;9.80;;;8.27;;
21426;SDS011;10874;49.452;11.050;2023-07-24T10:53:16;12.00;;;8.37;;
21426;SDS011;10874;49.452;11.050;2023-07-24T10:55:43;10.17;;;7.53;;
21426;SDS011;10874;49.452;11.050;2023-07-24T10:58:11;11.13;;;7.80;;
21426;SDS011;10874;49.452;11.050;2023-07-24T11:00:41;11.60;;;8.30;;
21426;SDS011;10874;49.452;11.050;2023-07-24T11:03:08;10.30;;;8.37;;
21426;SDS011;10874;49.452;11.050;2023-07-24T11:05:39;10.87;;;7.23;;
21426;SDS011;10874;49.452;11.050;2023-07-24T11:08:09;13.17;;;8.87;;
21426;SDS011;10874;49.452;11.050;2023-07-24T11:10:50;9.93;;;8.50;;
21426;SDS011;10874;49.452;11.050;2023-07-24T11:13:20;11.53;;;8.50;;
21426;SDS011;10874;49.452;11.050;2023-07-24T11:19:28;9.80;;;8.30;;
21426;SDS011;10874;49.452;11.050;2023-07-24T11:21:55;11.77;;;8.33;;
21426;SDS011;10874;49.452;11.050;2023-07-24T11:24:22;11.47;;;8.43;;
21426;SDS011;10874;49.452;11.050;2023-07-24T11:26:48;11.27;;;8.83;;
21426;SDS011;10874;49.452;11.050;2023-07-24T11:29:17;12.43;;;8.50;;
21426;SDS011;10874;49.452;11.050;2023-07-24T11:31:44;10.20;;;8.30;;
21426;SDS011;10874;49.452;11.050;2023-07-24T11:34:11;13.73;;;9.00;;
21426;SDS011;10874;49.452;11.050;2023-07-24T11:36:38;11.77;;;8.37;;
21426;SDS011;10874;49.452;11.050;2023-07-24T11:39:05;14.13;;;9.10;;
21426;SDS011;10874;49.452;11.050;2023-07-24T11:41:32;11.97;;;9.20;;
21426;SDS011;10874;49.452;11.050;2023-07-24T11:43:59;13.03;;;8.73;;
21426;SDS011;10874;49.452;11.050;2023-07-24T11:46:27;13.23;;;9.00;;
21426;SDS011;10874;49.452;11.050;2023-07-24T11:48:54;13.20;;;9.13;;
21426;SDS011;10874;49.452;11.050;2023-07-24T11:51:26;12.53;;;9.10;;
21426;SDS011;10874;49.452;11.050;2023-07-24T11:54:05;13.30;;;9.30;;
21426;SDS011;10874;49.452;11.050;2023-07-24T11:56:33;11.30;;;8.97;;
21426;SDS011;10874;49.452;11.050;2023-07-24T11:59:10;10.33;;;8.10;;
21426;SDS011;10874;49.452;11.050;2023-07-24T12:01:37;14.13;;;9.07;;
21426;SDS011;10874;49.452;11.050;2023-07-24T12:04:04;11.03;;;8.63;;
21426;SDS011;10874;49.452;11.050;2023-07-24T12:06:31;10.37;;;8.10;;
21426;SDS011;10874;49.452;11.050;2023-07-24T12:09:02;8.53;;;7.37;;
21426;SDS011;10874;49.452;11.050;2023-07-24T12:11:30;9.23;;;7.73;;
21426;SDS011;10874;49.452;11.050;2023-07-24T12:13:57;7.13;;;6.07;;
21426;SDS011;10874;49.452;11.050;2023-07-24T12:16:24;8.20;;;5.90;;
21426;SDS011;10874;49.452;11.050;2023-07-24T12:18:51;8.03;;;6.00;;
21426;SDS011;10874;49.452;11.050;2023-07-24T12:21:18;7.27;;;5.80;;
21426;SDS011;10874;49.452;11.050;2023-07-24T12:23:44;6.47;;;5.33;;
21426;SDS011;10874;49.452;11.050;2023-07-24T12:26:11;7.03;;;5.40;;
21426;SDS011;10874;49.452;11.050;2023-07-24T12:28:38;6.10;;;5.20;;
21426;SDS011;10874;49.452;11.050;2023-07-24T12:31:05;6.20;;;5.43;;
21426;SDS011;10874;49.452;11.050;2023-07-24T12:33:33;8.00;;;5.67;;
21426;SDS011;10874;49.452;11.050;2023-07-24T12:36:00;7.57;;;5.50;;
21426;SDS011;10874;49.452;11.050;2023-07-24T12:38:28;7.00;;;5.57;;
21426;SDS011;10874;49.452;11.050;2023-07-24T12:40:55;9.03;;;5.30;;
21426;SDS011;10874;49.452;11.050;2023-07-24T12:43:21;6.00;;;5.07;;
21426;SDS011;10874;49.452;11.050;2023-07-24T12:45:48;5.90;;;5.30;;
21426;SDS011;10874;49.452;11.050;2023-07-24T12:48:15;9.00;;;8.07;;
21426;SDS011;10874;49.452;11.050;2023-07-24T12:50:44;12.67;;;11.30;;
21426;SDS011;10874;49.452;11.050;2023-07-24T12:53:10;9.13;;;8.00;;
21426;SDS011;10874;49.452;11.050;2023-07-24T12:55:43;11.00;;;9.07;;
21426;SDS011;10874;49.452;11.050;2023-07-24T12:58:09;9.37;;;7.77;;
21426;SDS011;10874;49.452;11.050;2023-07-24T13:00:36;10.90;;;9.47;;
21426;SDS011;10874;49.452;11.050;2023-07-24T13:03:04;10.20;;;8.73;;
21426;SDS011;10874;49.452;11.050;2023-07-24T13:05:32;8.60;;;7.60;;
21426;SDS011;10874;49.452;11.050;2023-07-24T13:07:59;7.73;;;6.77;;
21426;SDS011;10874;49.452;11.050;2023-07-24T13:10:25;9.00;;;7.00;;
21426;SDS011;10874;49.452;11.050;2023-07-24T13:12:52;8.53;;;6.63;;
21426;SDS011;10874;49.452;11.050;2023-07-24T13:15:19;9.47;;;6.87;;
21426;SDS011;10874;49.452;11.050;2023-07-24T13:17:46;8.33;;;7.20;;
21426;SDS011;10874;49.452;11.050;2023-07-24T13:20:13;8.57;;;6.87;;
21426;SDS011;10874;49.452;11.050;2023-07-24T13:22:40;8.17;;;7.03;;
21426;SDS011;10874;49.452;11.050;2023-07-24T13:25:09;7.83;;;6.53;;
21426;SDS011;10874;49.452;11.050;2023-07-24T13:27:36;9.60;;;6.53;;
21426;SDS011;10874;49.452;11.050;2023-07-24T13:30:03;8.23;;;6.67;;
21426;SDS011;10874;49.452;11.050;2023-07-24T13:32:30;6.57;;;5.97;;
21426;SDS011;10874;49.452;11.050;2023-07-24T13:34:57;6.93;;;6.23;;
21426;SDS011;10874;49.452;11.050;2023-07-24T13:37:23;7.50;;;5.90;;
21426;SDS011;10874;49.452;11.050;2023-07-24T13:39:51;7.30;;;5.90;;
21426;SDS011;10874;49.452;11.050;2023-07-24T13:42:17;8.03;;;6.27;;
21426;SDS011;10874;49.452;11.050;2023-07-24T13:44:44;8.37;;;6.43;;
21426;SDS011;10874;49.452;11.050;2023-07-24T13:47:11;7.03;;;5.43;;
21426;SDS011;10874;49.452;11.050;2023-07-24T13:49:38;6.97;;;5.90;;
21426;SDS011;10874;49.452;11.050;2023-07-24T13:52:04;6.70;;;5.63;;
21426;SDS011;10874;49.452;11.050;2023-07-24T13:54:32;8.13;;;5.67;;
21426;SDS011;10874;49.452;11.050;2023-07-24T13:56:58;7.83;;;6.40;;
21426;SDS011;10874;49.452;11.050;2023-07-24T13:59:25;6.10;;;5.50;;
21426;SDS011;10874;49.452;11.050;2023-07-24T14:01:52;7.43;;;5.87;;
21426;SDS011;10874;49.452;11.050;2023-07-24T14:04:19;9.17;;;5.73;;
21426;SDS011;10874;49.452;11.050;2023-07-24T14:06:46;9.20;;;5.60;;
21426;SDS011;10874;49.452;11.050;2023-07-24T14:09:13;7.23;;;5.83;;
21426;SDS011;10874;49.452;11.050;2023-07-24T14:11:39;6.93;;;5.93;;
21426;SDS011;10874;49.452;11.050;2023-07-24T14:14:06;7.33;;;6.37;;
21426;SDS011;10874;49.452;11.050;2023-07-24T14:16:33;6.33;;;5.50;;
21426;SDS011;10874;49.452;11.050;2023-07-24T14:19:00;7.60;;;5.60;;
21426;SDS011;10874;49.452;11.050;2023-07-24T14:21:26;6.87;;;5.90;;
21426;SDS011;10874;49.452;11.050;2023-07-24T14:23:54;8.63;;;5.70;;
21426;SDS011;10874;49.452;11.050;2023-07-24T14:26:22;5.87;;;5.27;;
21426;SDS011;10874;49.452;11.050;2023-07-24T14:28:50;5.37;;;4.87;;
21426;SDS011;10874;49.452;11.050;2023-07-24T14:31:17;5.80;;;5.13;;
21426;SDS011;10874;49.452;11.050;2023-07-24T14:33:43;6.87;;;5.47;;
21426;SDS011;10874;49.452;11.050;2023-07-24T14:36:10;6.10;;;5.20;;
21426;SDS011;10874;49.452;11.050;2023-07-24T14:38:37;6.70;;;5.00;;
21426;SDS011;10874;49.452;11.050;2023-07-24T14:41:03;5.80;;;5.20;;